Relevés horaires Bierset (Belgique)


Relevés horaires à Bierset - Samedi 24 Févr. 2018
Heure UTC1 Température [°C] Vent [km/h] Hum. [%] Pres.4 [hPa] Visi. [Km] Nébu. [octa] Préc.5 [mm] Cond.
2m. Res. Ros. Dir.2 Vit. Moy. Raf.3
23:00 -2.1 -5.6 -11.9 E 9.3 11.1 24.1 47 1025.5(0.8/3h) 40 0/8 -- --
22:00 -1.7 -5.1 -10.5 E 9.3 13.0 24.1 51 1025.3(1.0/3h) 40 0/8 -- --
21:00 -1.3 -5.2 -9.7 E 11.1 14.8 24.1 53 1024.9(1.3/3h) 40 0/8 -- --
20:00 -1.0 -5.2 -9.9 E 13.0 13.0 24.1 51 1024.6(1.8/3h) 40 0/8 -- --
19:00 -0.6 -4.8 -10.1 E 13.0 13.0 24.1 48 1024.1(1.6/3h) 40 0/8 -- --
18:00 0.4 -3.5 -9.4 E 13.0 20.4 29.6 48 1023.4(1.2/3h) 40 3/8 0/12h
--
17:00 2.1 -1.8 -7.9 ENE 14.8 16.7 24.1 47 1022.6(0.7/3h) 30 6/8 -- --
16:00 3.6 0.1 -9.0 E 14.8 20.4 29.6 39 1022.1(0.3/3h) 30 6/8 -- --
15:00 4.8 1.5 -10.5 ENE 14.8 18.5 29.6 32 1021.8(-0.1/3h) 30 5/8 -- --
14:00 4.7 1.4 -11.3 ENE 14.8 16.7 27.8 30 1021.7(-0.5/3h) 30 4/8 -- --
13:00 3.7 0.2 -12.8 ENE 14.8 16.7 29.6 29 1021.8(0.1/3h) 30 3/8 -- --
12:00 2.5 -1.6 -14.2 ENE 16.7 16.7 27.8 28 1022.1(0.1/3h) 30 3/8 0/6h
--
11:00 1.7 -2.3 -15.0 ENE 14.8 14.8 25.9 28 1022.4(0.5/3h) 27 2/8 -- --
10:00 -0.1 -3.7 -13.7 ENE 11.1 13.0 24.1 35 1022.2(0.6/3h) 27 1/8 -- --
09:00 -2.0 -6.5 -13.6 ENE 13.0 13.0 22.2 41 1022.4(1.2/3h) 27 0/8 -- --
08:00 -3.6 -8.4 -13.4 ENE 13.0 13.0 22.2 46 1022.4(1.1/3h) 25 0/8 -- --
07:00 -4.9 -9.5 -12.6 ENE 11.1 13.0 18.5 55 1022.1(0.7/3h) 25 0/8 -- --
06:00 -5.0 -9.6 -12.0 ENE 11.1 13.0 20.4 58 1021.4(0.6/3h) 30 0/8 0/12h
--
05:00 -5.0 -9.1 -11.2 ENE 9.3 11.1 16.7 62 1021.4(0.4/3h) 30 0/8 -- --
04:00 -4.4 -7.7 -11.2 ENE 7.4 11.1 16.7 59 1021.3(0.7/3h) 30 0/8 -- --
03:00 -4.0 -8.4 -11.2 ENE 11.1 13.0 18.5 57 1020.8(0.2/3h) 30 0/8 -- --
02:00 -4.1 -8 -11.6 NE 9.3 11.1 14.8 56 1020.9(0.5/3h) 30 0/8 -- --
01:00 -3.0 -7.2 -12.2 ENE 11.1 11.1 14.8 49 1020.5(0.3/3h) 30 0/8 -- --
00:00 -2.6 -5.6 -12.1 ENE 7.4 11.1 20.4 48 1020.5(-0.1/3h) 30 0/8 0/6h
0/24h
--

1 Coordinated Universal Time. Actuellement il est 00:00 locale et 22:00 UTC.

2 Le vent souffle depuis la direction indiquée vers la direction oposée.

3 Les rafales max. sont disponible 40 min après l'heure du relevé.

4 Pour les stations d'altitude (plus de 600m) le géopotentiel du niveau le plus proche de la pression obligatoire est indiqué.

5 Les stations disposant d'un diffuseur peuvent indiquer "trace". Cela signifie que des précipitations ont touchés le sol mais que la quantité est inférieure à 0.1 mm.

Récapitulatif de la journée
Température [°C] Vent [km/h] Ensoleillement4 [h] Precipitations totale5 [mm] Pression [Hpa]
Min1 Max.2 Moy.3 Max. Min Max.
-5.1 4.9 14.1 29.6 0 h 0 min 0 1020.5 1025.5

1 Température minimale relevée entre 18:00 UTC la veille et 18:00 UTC le jour donné.

2 Température maximale relevée entre 06:00 UTC le jour donné et 06:00 UTC le lendemain.

3 Vent moyen de la journée basé sur les relevés horaires.

4 Ensoleillement en heures relevé entre 06:00 UTC la veille et 06:00 UTC le jour donné.

5 Précipitations totales tombées entre 06:00 UTC la jour donné et 06:00 UTC le lendemain.

Graphiques horaires